Grande Europa — ICGE — position and weather

sailwx.info

Track history (hours):
 
Tides and Currents Weather Stations Pressure Air Temp Water Temp Dewpoint Dewpoint Depression Visibility Wind Speed Wind Dir Waves Ship Positions

Grande Europa

Last reported at 2014-Sep-20 14:08 UTC. Time now 2014-Sep-22 04:18 UTC.
Position N 38°31' W 009°40'.

Length 183 m; draft 9 m.

Type: Ship (hazmat cat D). MMSI: 247206000.

Date/timePositionNaut miles runAvg speedWind from/ knotsBaromVisibWave heightAir tempDewpointWater temp
2014-Sep-20 14:08N 38°31' W 009°40'1017.5
2014-Sep-20 13:32N 38°27' W 009°28'1717.0
2014-Sep-20 12:33N 38°22' W 009°08'1313.2
2014-Sep-20 11:33N 38°30' W 008°55'2 1.5
2014-Sep-20 10:31N 38°31' W 008°53'0 0.0
2014-Sep-20 09:31N 38°31' W 008°53'0 0.0
2014-Sep-20 08:31N 38°31' W 008°53'0 0.0
2014-Sep-20 07:31N 38°31' W 008°53'0 0.0
2014-Sep-20 06:31N 38°31' W 008°53'4 4.4
2014-Sep-20 05:33N 38°28' W 008°57'9 8.5
2014-Sep-20 04:34N 38°21' W 009°02'1817.5
2014-Sep-20 03:33N 38°04' W 009°06'1717.4
2014-Sep-20 02:33N 37°46' W 009°10'1717.3
2014-Sep-20 01:33N 37°30' W 009°14'3716.4
2014-Sep-19 23:17N 36°52' W 009°18'1716.2
2014-Sep-19 22:14N 36°42' W 009°01'1116.4
2014-Sep-19 21:33N 36°39' W 008°48'16516.5
2014-Sep-19 11:33N 35°60' W 005°28'23116.5
2014-Sep-18 21:33N 37°18' W 000°57'1818.1
2014-Sep-18 20:33N 37°30' W 000°40'1817.9
2014-Sep-18 19:33N 37°43' W 000°26'1818.2
2014-Sep-18 18:33N 37°59' W 000°13'2418.1
2014-Sep-18 17:15N 38°18' E 000°04'1217.6
2014-Sep-18 16:33N 38°29' E 000°12'7517.9
2014-Sep-18 12:20N 39°22' E 001°21'2017.5
2014-Sep-18 11:12N 39°35' E 001°41'1417.8
2014-Sep-18 10:26N 39°44' E 001°54'2217.5
2014-Sep-18 09:12N 39°58' E 002°15'1521.5
2014-Sep-18 08:30N 40°08' E 002°29'1414.5
2014-Sep-18 07:33N 40°17' E 002°43'2017.9
2014-Sep-18 06:28N 40°30' E 003°03'14818.0
2014-Sep-17 22:14N 42°07' E 005°31'1218.1
2014-Sep-17 21:33N 42°15' E 005°44'1818.2
2014-Sep-17 20:33N 42°27' E 006°02'1918.5
2014-Sep-17 19:32N 42°39' E 006°21'1918.9
2014-Sep-17 18:34N 42°51' E 006°40'1919.1
2014-Sep-17 17:33N 43°04' E 007°00'1918.9
2014-Sep-17 16:32N 43°16' E 007°20'1818.7
2014-Sep-17 15:33N 43°28' E 007°39'1918.7
2014-Sep-17 14:33N 43°40' E 007°59'1918.5
2014-Sep-17 13:31N 43°53' E 008°19'1717.9
2014-Sep-17 12:33N 44°09' E 008°29'10 9.9
2014-Sep-17 11:32N 44°19' E 008°30'0 0.0
2014-Sep-17 10:29N 44°19' E 008°30'0 0.0
2014-Sep-17 09:29N 44°19' E 008°30'0 0.0
2014-Sep-17 08:32N 44°19' E 008°30'0 0.0
2014-Sep-17 07:32N 44°19' E 008°30'0 0.0
2014-Sep-17 06:32N 44°19' E 008°30'0 0.0
2014-Sep-17 05:29N 44°19' E 008°30'0 0.4
2014-Sep-17 04:34N 44°19' E 008°30'8 7.8
2014-Sep-17 03:33N 44°13' E 008°37'1615.7
2014-Sep-17 02:33N 43°59' E 008°48'1615.6
2014-Sep-17 01:33N 43°46' E 008°59'1615.5
2014-Sep-17 00:33N 43°33' E 009°11'1515.4
2014-Sep-16 23:33N 43°20' E 009°23'1615.5
2014-Sep-16 22:33N 43°07' E 009°34'1615.7
2014-Sep-16 21:33N 42°54' E 009°47'1615.8
2014-Sep-16 20:32N 42°43' E 010°02'1915.4
2014-Sep-16 19:19N 42°31' E 010°21'1315.3
2014-Sep-16 18:29N 42°22' E 010°34'20015.4
2014-Sep-16 05:33N 40°30' E 014°14'1616.0
2014-Sep-16 04:33N 40°34' E 014°35'6 0.2
2014-Sep-15 02:33N 40°32' E 014°43'43715.0
2014-Sep-13 21:31N 35°48' E 021°45'5016.4
2014-Sep-13 18:30N 35°28' E 022°40'1616.7
2014-Sep-13 17:33N 35°22' E 022°58'  
Track history (hours):
 
Tides and Currents Weather Stations Pressure Air Temp Water Temp Dewpoint Dewpoint Depression Visibility Wind Speed Wind Dir Waves Ship Positions

Grande Europa

Last reported at 2014-Sep-20 14:08 UTC. Time now 2014-Sep-22 04:18 UTC.
Position N 38°31' W 009°40'.

Length 183 m; draft 9 m.

Type: Ship (hazmat cat D). MMSI: 247206000.

Date/timePositionNaut miles runAvg speedWind from/ knotsBaromVisibWave heightAir tempDewpointWater temp
2014-Sep-20 14:08N 38°31' W 009°40'1017.5
2014-Sep-20 13:32N 38°27' W 009°28'1717.0
2014-Sep-20 12:33N 38°22' W 009°08'1313.2
2014-Sep-20 11:33N 38°30' W 008°55'2 1.5
2014-Sep-20 10:31N 38°31' W 008°53'0 0.0
2014-Sep-20 09:31N 38°31' W 008°53'0 0.0
2014-Sep-20 08:31N 38°31' W 008°53'0 0.0
2014-Sep-20 07:31N 38°31' W 008°53'0 0.0
2014-Sep-20 06:31N 38°31' W 008°53'4 4.4
2014-Sep-20 05:33N 38°28' W 008°57'9 8.5
2014-Sep-20 04:34N 38°21' W 009°02'1817.5
2014-Sep-20 03:33N 38°04' W 009°06'1717.4
2014-Sep-20 02:33N 37°46' W 009°10'1717.3
2014-Sep-20 01:33N 37°30' W 009°14'3716.4
2014-Sep-19 23:17N 36°52' W 009°18'1716.2
2014-Sep-19 22:14N 36°42' W 009°01'1116.4
2014-Sep-19 21:33N 36°39' W 008°48'16516.5
2014-Sep-19 11:33N 35°60' W 005°28'23116.5
2014-Sep-18 21:33N 37°18' W 000°57'1818.1
2014-Sep-18 20:33N 37°30' W 000°40'1817.9
2014-Sep-18 19:33N 37°43' W 000°26'1818.2
2014-Sep-18 18:33N 37°59' W 000°13'2418.1
2014-Sep-18 17:15N 38°18' E 000°04'1217.6
2014-Sep-18 16:33N 38°29' E 000°12'7517.9
2014-Sep-18 12:20N 39°22' E 001°21'2017.5
2014-Sep-18 11:12N 39°35' E 001°41'1417.8
2014-Sep-18 10:26N 39°44' E 001°54'2217.5
2014-Sep-18 09:12N 39°58' E 002°15'1521.5
2014-Sep-18 08:30N 40°08' E 002°29'1414.5
2014-Sep-18 07:33N 40°17' E 002°43'2017.9
2014-Sep-18 06:28N 40°30' E 003°03'14818.0
2014-Sep-17 22:14N 42°07' E 005°31'1218.1
2014-Sep-17 21:33N 42°15' E 005°44'1818.2
2014-Sep-17 20:33N 42°27' E 006°02'1918.5
2014-Sep-17 19:32N 42°39' E 006°21'1918.9
2014-Sep-17 18:34N 42°51' E 006°40'1919.1
2014-Sep-17 17:33N 43°04' E 007°00'1918.9
2014-Sep-17 16:32N 43°16' E 007°20'1818.7
2014-Sep-17 15:33N 43°28' E 007°39'1918.7
2014-Sep-17 14:33N 43°40' E 007°59'1918.5
2014-Sep-17 13:31N 43°53' E 008°19'1717.9
2014-Sep-17 12:33N 44°09' E 008°29'10 9.9
2014-Sep-17 11:32N 44°19' E 008°30'0 0.0
2014-Sep-17 10:29N 44°19' E 008°30'0 0.0
2014-Sep-17 09:29N 44°19' E 008°30'0 0.0
2014-Sep-17 08:32N 44°19' E 008°30'0 0.0
2014-Sep-17 07:32N 44°19' E 008°30'0 0.0
2014-Sep-17 06:32N 44°19' E 008°30'0 0.0
2014-Sep-17 05:29N 44°19' E 008°30'0 0.4
2014-Sep-17 04:34N 44°19' E 008°30'8 7.8
2014-Sep-17 03:33N 44°13' E 008°37'1615.7
2014-Sep-17 02:33N 43°59' E 008°48'1615.6
2014-Sep-17 01:33N 43°46' E 008°59'1615.5
2014-Sep-17 00:33N 43°33' E 009°11'1515.4
2014-Sep-16 23:33N 43°20' E 009°23'1615.5
2014-Sep-16 22:33N 43°07' E 009°34'1615.7
2014-Sep-16 21:33N 42°54' E 009°47'1615.8
2014-Sep-16 20:32N 42°43' E 010°02'1915.4
2014-Sep-16 19:19N 42°31' E 010°21'1315.3
2014-Sep-16 18:29N 42°22' E 010°34'20015.4
2014-Sep-16 05:33N 40°30' E 014°14'1616.0
2014-Sep-16 04:33N 40°34' E 014°35'6 0.2
2014-Sep-15 02:33N 40°32' E 014°43'43715.0
2014-Sep-13 21:31N 35°48' E 021°45'5016.4
2014-Sep-13 18:30N 35°28' E 022°40'1616.7
2014-Sep-13 17:33N 35°22' E 022°58'  

Dump ship's entire track history